Terminal Aerodrome Forecast
Issued by NWS

Home | Current Version | Previous Version | Text Only | Print | Product List | Glossary On
Versions: 1 2 3 4 5 6 7 8 9 10 11 12 13 14 15 16 17 18 19
084
FTUS43 KGRR 041741
TAFBTL
TAF
KBTL 041741Z 0418/0518 13006KT 5SM BR OVC035
     FM042000 12006KT 2SM -SN BR OVC009
     FM050000 16006KT 1SM -SN BR OVC005
     FM050200 18005KT 3/4SM -SN BR OVC005
     FM050300 20005KT 2SM -SN BR OVC008
     FM051600 21007KT 4SM BR OVC025=

USA.gov is the U.S. government's official web portal to all federal, state and local government web resources and services.